Time;durP1;ratioP1;P1;durP2;ratioP2;P2;SDS_P1;SDS_P2;PMS_P1;PMS_P2;Temp;Humidity;BMP_temperature;BMP_pressure;BME280_temperature;BME280_humidity;BME280_pressure;Samples;Min_cycle;Max_cycle;Signal;HPM_P1;HPM_P2
2023/03/18 08:24:10;;;;;;;239.52;179.05;;;;;;;20.71;52.34;100296.00;5098192;27;20163;-46
2023/03/18 08:26:37;;;;;;;239.25;174.63;;;;;;;21.65;49.34;100304.34;5095173;28;20072;-47
2023/03/18 08:29:04;;;;;;;231.00;165.35;;;;;;;22.42;47.19;100303.44;5101554;28;20063;-47
2023/03/18 08:31:31;;;;;;;221.77;161.73;;;;;;;22.89;46.13;100305.56;5099816;28;20026;-47
2023/03/18 08:34:00;;;;;;;235.98;167.90;;;;;;;23.21;45.54;100304.91;5098448;28;20032;-48
2023/03/18 08:36:27;;;;;;;233.55;166.27;;;;;;;23.43;44.47;100310.28;5102924;28;20024;-48
2023/03/18 08:38:56;;;;;;;229.70;165.77;;;;;;;23.66;43.89;100312.13;5099351;28;20390;-47
2023/03/18 08:41:24;;;;;;;221.25;154.32;;;;;;;23.76;43.65;100316.53;5097416;28;20478;-47
2023/03/18 08:43:56;;;;;;;206.70;153.45;;;;;;;23.89;43.16;100319.19;5100465;28;20259;-52
2023/03/18 08:46:24;;;;;;;210.57;152.00;;;;;;;24.04;43.20;100321.00;5101616;28;20024;-48
2023/03/18 08:48:54;;;;;;;205.45;147.05;;;;;;;24.11;42.68;100325.38;5109595;28;20024;-46
2023/03/18 08:51:23;;;;;;;203.27;142.57;;;;;;;24.27;42.39;100328.91;5108659;28;20027;-48
2023/03/18 08:53:52;;;;;;;183.43;134.25;;;;;;;24.31;42.44;100322.81;5109459;28;20027;-47
2023/03/18 08:56:20;;;;;;;187.00;135.75;;;;;;;24.36;42.09;100334.16;5108279;28;20028;-48
2023/03/18 08:58:48;;;;;;;184.90;132.85;;;;;;;24.31;42.25;100337.66;5109487;28;20031;-50
2023/03/18 09:01:18;;;;;;;180.13;128.15;;;;;;;24.33;41.95;100339.41;5104785;28;20031;-51
2023/03/18 09:03:46;;;;;;;177.50;130.40;;;;;;;24.40;41.84;100345.56;5105361;28;20032;-47
2023/03/18 09:06:15;;;;;;;179.38;126.65;;;;;;;24.34;42.22;100353.41;5089754;28;20106;-50
2023/03/18 09:08:43;;;;;;;166.65;123.25;;;;;;;24.44;41.87;100347.28;5089371;28;20020;-48
2023/03/18 09:11:12;;;;;;;182.25;128.98;;;;;;;24.36;41.86;100349.91;5089101;28;20032;-48
2023/03/18 09:13:41;;;;;;;170.73;126.10;;;;;;;24.32;42.02;100350.78;5089368;28;20052;-46
2023/03/18 09:16:09;;;;;;;181.10;128.48;;;;;;;24.33;41.95;100349.88;5089053;28;20462;-47
2023/03/18 09:18:39;;;;;;;183.00;127.38;;;;;;;24.34;42.41;100364.75;5089336;28;20140;-46
2023/03/18 09:21:08;;;;;;;175.85;130.68;;;;;;;24.34;42.22;100349.00;5089066;28;20711;-48
2023/03/18 09:23:37;;;;;;;175.45;126.47;;;;;;;24.51;42.05;100358.66;5089091;28;20063;-46
2023/03/18 09:26:05;;;;;;;174.00;128.82;;;;;;;24.49;41.74;100361.28;5088940;28;20064;-48
2023/03/18 09:28:34;;;;;;;190.27;133.60;;;;;;;24.45;42.03;100367.38;5089370;28;20024;-47
2023/03/18 09:31:02;;;;;;;179.55;129.18;;;;;;;24.50;41.90;100370.00;5089524;28;20461;-48
2023/03/18 09:33:30;;;;;;;173.00;123.30;;;;;;;24.55;42.12;100378.75;5086076;28;20032;-49
2023/03/18 09:35:59;;;;;;;170.73;125.97;;;;;;;24.59;41.59;100383.16;5075291;28;20024;-50
2023/03/18 09:38:27;;;;;;;180.30;122.70;;;;;;;24.54;42.10;100379.63;5075437;28;20112;-46
2023/03/18 09:41:33;;;;;;;166.25;122.55;;;;;;;24.64;41.62;100380.53;5075711;28;20515;-47
2023/03/18 09:44:25;;;;;;;170.30;121.80;;;;;;;24.54;42.10;100385.78;5060431;28;20048;-48
2023/03/18 09:47:09;;;;;;;159.07;115.47;;;;;;;24.63;41.57;100384.91;5075398;28;20455;-47
2023/03/18 09:50:05;;;;;;;169.20;118.13;;;;;;;24.64;41.61;100393.63;5075352;28;20028;-46
2023/03/18 09:52:46;;;;;;;165.90;114.28;;;;;;;24.58;41.60;100394.50;5074205;28;20031;-47
2023/03/18 09:55:39;;;;;;;158.13;112.13;;;;;;;24.64;41.59;100397.16;5075112;28;20024;-46
2023/03/18 09:58:18;;;;;;;157.50;111.97;;;;;;;24.60;42.00;100399.75;5073819;28;20056;-47
2023/03/18 10:00:48;;;;;;;157.90;108.55;;;;;;;24.63;41.93;100403.25;5075428;28;20047;-48
2023/03/18 10:03:34;;;;;;;151.02;106.10;;;;;;;24.63;41.63;100400.66;5073155;28;20043;-48
2023/03/18 10:06:16;;;;;;;144.40;102.20;;;;;;;24.60;41.62;100416.38;5083382;28;20067;-48
2023/03/18 10:09:08;;;;;;;144.75;101.95;;;;;;;24.60;41.80;100415.47;5095549;28;20024;-48
2023/03/18 10:11:47;;;;;;;159.00;109.70;;;;;;;24.55;42.04;100416.38;5091204;28;20093;-48
2023/03/18 10:14:41;;;;;;;136.93;94.85;;;;;;;24.58;41.47;100425.97;5087149;28;20116;-48
2023/03/18 10:17:17;;;;;;;137.73;94.85;;;;;;;24.55;41.32;100419.00;5072721;28;20037;-50
2023/03/18 10:19:50;;;;;;;129.38;92.93;;;;;;;24.58;41.48;100431.22;5075821;28;20029;-48
2023/03/18 10:22:19;;;;;;;130.10;90.97;;;;;;;24.68;41.33;100437.38;5075314;28;20036;-48
2023/03/18 10:25:00;;;;;;;117.30;85.60;;;;;;;24.71;41.06;100435.66;5074466;28;20060;-47
2023/03/18 10:27:51;;;;;;;117.55;82.18;;;;;;;24.76;41.01;100438.25;5076351;28;20020;-47
2023/03/18 10:30:38;;;;;;;114.35;80.30;;;;;;;24.78;40.98;100436.53;5081685;28;20033;-48
2023/03/18 10:33:17;;;;;;;107.28;74.30;;;;;;;24.69;41.21;100437.34;5073441;28;20064;-49
2023/03/18 10:36:08;;;;;;;100.53;74.32;;;;;;;24.72;41.21;100445.25;5073563;28;20028;-46
2023/03/18 10:38:38;;;;;;;97.78;70.72;;;;;;;24.66;41.26;100431.22;5081157;28;20098;-48
2023/03/18 10:41:16;;;;;;;94.20;66.75;;;;;;;24.65;41.23;100433.00;5078545;28;20169;-49
2023/03/18 10:43:46;;;;;;;90.40;65.28;;;;;;;24.69;40.87;100436.50;5074985;28;20064;-47
2023/03/18 10:46:16;;;;;;;90.75;63.92;;;;;;;24.62;41.04;100443.47;5073762;28;20021;-51
2023/03/18 10:48:56;;;;;;;83.35;57.08;;;;;;;24.47;41.69;100436.44;5075497;28;20103;-47
2023/03/18 10:51:53;;;;;;;80.60;52.50;;;;;;;24.53;41.09;100439.09;5074969;28;20025;-51
2023/03/18 10:54:31;;;;;;;67.32;46.85;;;;;;;24.46;41.04;100439.06;5035994;28;20038;-48
2023/03/18 10:56:59;;;;;;;56.35;38.58;;;;;;;24.41;41.13;100436.41;5012549;28;20025;-47
2023/03/18 10:59:27;;;;;;;56.30;39.40;;;;;;;24.45;41.10;100447.81;5012302;28;20045;-48
2023/03/18 11:02:03;;;;;;;53.13;36.45;;;;;;;24.51;40.81;100442.56;5014015;28;20032;-46
2023/03/18 11:04:38;;;;;;;50.45;33.60;;;;;;;24.51;40.77;100456.56;5008107;28;20444;-47
2023/03/18 11:07:05;;;;;;;;;;;;;;;24.70;40.29;100449.63;5012935;28;20068;-48
2023/03/18 11:09:35;;;;;;;42.45;28.00;;;;;;;24.66;40.44;100453.06;5011919;28;19929;-47
2023/03/18 11:12:07;;;;;;;36.30;26.52;;;;;;;24.58;40.92;100454.81;5013421;28;20124;-48
2023/03/18 11:14:36;;;;;;;39.75;27.05;;;;;;;24.62;40.73;100455.69;5008832;28;20065;-47
2023/03/18 11:17:09;;;;;;;41.05;26.75;;;;;;;24.59;40.57;100467.06;5012201;28;20018;-47
2023/03/18 11:19:40;;;;;;;36.63;26.63;;;;;;;24.58;40.63;100470.56;5010499;28;20037;-48
2023/03/18 11:22:16;;;;;;;40.53;28.10;;;;;;;24.55;40.87;100466.19;5012194;28;20139;-47
2023/03/18 11:24:45;;;;;;;42.92;28.20;;;;;;;24.58;40.96;100481.03;5007913;28;20037;-48
2023/03/18 11:27:16;;;;;;;46.03;29.15;;;;;;;24.58;40.74;100476.66;5013324;28;20030;-47
2023/03/18 11:29:50;;;;;;;45.85;29.30;;;;;;;24.70;40.40;100480.25;5011070;28;20057;-48
2023/03/18 11:32:32;;;;;;;42.13;29.38;;;;;;;24.65;40.61;100484.56;5008054;28;20037;-48
2023/03/18 11:35:03;;;;;;;42.20;29.80;;;;;;;24.67;40.92;100496.78;5011419;28;20448;-46
2023/03/18 11:37:34;;;;;;;43.35;31.02;;;;;;;24.65;40.82;100493.31;5013111;28;20387;-47
2023/03/18 11:40:25;;;;;;;47.22;31.02;;;;;;;24.73;40.54;100491.59;5012620;28;20103;-46
2023/03/18 11:42:59;;;;;;;46.60;34.25;;;;;;;24.78;40.71;100488.13;5011448;28;20029;-46
2023/03/18 11:45:50;;;;;;;46.80;34.55;;;;;;;24.77;40.62;100494.25;5012766;28;20029;-47
2023/03/18 11:48:32;;;;;;;48.53;35.05;;;;;;;24.79;40.56;100495.13;5009013;28;20037;-46
2023/03/18 11:51:01;;;;;;;51.55;36.35;;;;;;;24.79;40.57;100497.75;5012856;28;20026;-46
2023/03/18 11:53:39;;;;;;;48.75;33.25;;;;;;;24.79;40.52;100493.38;5012758;28;20037;-47
2023/03/18 11:56:35;;;;;;;43.28;32.70;;;;;;;24.86;40.57;100496.88;5010994;28;20026;-46
2023/03/18 11:59:41;;;;;;;46.08;31.80;;;;;;;24.93;40.30;100501.28;5008004;28;20041;-47
2023/03/18 12:02:38;;;;;;;52.40;34.83;;;;;;;24.87;40.59;100493.38;5010076;28;20045;-46
2023/03/18 12:05:34;;;;;;;51.65;36.03;;;;;;;24.70;40.67;100501.22;5011263;28;20119;-45
2023/03/18 12:08:09;;;;;;;53.58;38.50;;;;;;;24.77;40.73;100496.88;5025607;28;20502;-47
2023/03/18 12:10:45;;;;;;;45.60;34.55;;;;;;;24.79;40.68;100497.75;5032098;28;20039;-46
2023/03/18 12:13:34;;;;;;;51.42;35.33;;;;;;;24.89;40.43;100504.75;5026318;28;20050;-48
2023/03/18 12:16:41;;;;;;;42.83;33.08;;;;;;;24.92;40.68;100503.88;5006802;28;20044;-47
2023/03/18 12:19:29;;;;;;;53.15;36.15;;;;;;;24.97;40.45;100508.28;5030213;28;20087;-46
2023/03/18 12:22:25;;;;;;;47.72;33.38;;;;;;;24.98;40.59;100517.91;5026864;28;20022;-47
2023/03/18 12:25:21;;;;;;;50.85;36.50;;;;;;;24.88;40.64;100517.00;5029061;28;20546;-46
2023/03/18 12:28:09;;;;;;;53.42;37.42;;;;;;;25.00;40.69;100528.41;5024205;28;20045;-47
2023/03/18 12:30:47;;;;;;;52.08;38.03;;;;;;;24.96;40.76;100514.41;5029057;28;20475;-50
2023/03/18 12:33:35;;;;;;;48.20;33.10;;;;;;;24.99;40.52;100519.63;5018217;28;20034;-48
2023/03/18 12:36:22;;;;;;;52.33;33.28;;;;;;;24.98;40.63;100519.63;5008165;28;20033;-48
2023/03/18 12:39:14;;;;;;;59.50;37.92;;;;;;;24.84;41.07;100527.47;5026041;28;20040;-46
2023/03/18 12:42:02;;;;;;;61.25;40.92;;;;;;;24.91;41.08;100530.97;5028183;28;20049;-48
2023/03/18 12:44:48;;;;;;;58.13;37.75;;;;;;;24.92;40.94;100527.50;5022414;28;20038;-47
2023/03/18 12:47:23;;;;;;;60.05;37.58;;;;;;;24.96;41.02;100531.88;5030345;28;20436;-47
2023/03/18 12:49:55;;;;;;;51.95;34.60;;;;;;;25.01;40.70;100533.63;5028316;28;20064;-47
2023/03/18 12:52:25;;;;;;;50.22;33.70;;;;;;;24.94;40.86;100531.88;5031868;28;20033;-48
2023/03/18 12:55:17;;;;;;;59.08;38.42;;;;;;;24.91;41.06;100529.25;5031785;28;20041;-47
2023/03/18 12:57:49;;;;;;;55.42;35.53;;;;;;;24.92;40.83;100536.25;5020806;28;20038;-46
2023/03/18 13:00:17;;;;;;;61.83;37.88;;;;;;;24.89;41.20;100544.09;5028453;28;20120;-47
2023/03/18 13:02:54;;;;;;;58.97;37.95;;;;;;;24.96;40.86;100538.00;5031719;28;20064;-47
2023/03/18 13:05:51;;;;;;;50.83;34.30;;;;;;;25.09;40.58;100541.50;5031785;28;20071;-47
2023/03/18 13:08:39;;;;;;;47.28;32.17;;;;;;;25.07;40.80;100545.88;5029246;28;20026;-47
2023/03/18 13:11:28;;;;;;;52.25;35.80;;;;;;;25.08;40.45;100549.41;5032341;28;20116;-47
2023/03/18 13:14:01;;;;;;;58.08;37.65;;;;;;;24.94;41.13;100552.88;5035341;28;20033;-48
2023/03/18 13:16:31;;;;;;;57.15;39.28;;;;;;;24.90;41.01;100556.34;5035510;28;20033;-47
2023/03/18 13:19:00;;;;;;;52.92;35.13;;;;;;;24.96;40.75;100552.88;5030799;28;20045;-48
2023/03/18 13:21:31;;;;;;;49.55;35.83;;;;;;;25.03;40.66;100554.66;5034204;28;20029;-46
2023/03/18 13:24:09;;;;;;;59.92;40.65;;;;;;;24.91;40.95;100558.13;5034937;28;20049;-47
2023/03/18 13:27:05;;;;;;;56.38;39.40;;;;;;;24.82;41.02;100563.34;5035842;28;20060;-46
2023/03/18 13:29:35;;;;;;;58.10;38.60;;;;;;;24.97;40.98;100570.38;5032324;28;20039;-47
2023/03/18 13:32:41;;;;;;;59.15;39.58;;;;;;;24.96;41.09;100560.75;5035934;28;20025;-47
2023/03/18 13:35:49;;;;;;;54.63;37.55;;;;;;;25.10;40.81;100566.88;5031869;28;20036;-50
2023/03/18 13:38:37;;;;;;;54.40;35.75;;;;;;;24.98;40.98;100569.50;5027052;28;20045;-47
2023/03/18 13:41:44;;;;;;;53.63;38.30;;;;;;;24.98;40.58;100572.13;5032423;28;20034;-47
2023/03/18 13:44:22;;;;;;;58.28;39.70;;;;;;;24.98;41.08;100570.38;5031406;28;20180;-50
2023/03/18 13:47:03;;;;;;;50.70;35.72;;;;;;;24.98;40.90;100570.38;5034640;28;20033;-47
2023/03/18 13:49:33;;;;;;;54.85;39.47;;;;;;;24.86;41.28;100572.94;5035666;28;20022;-46
2023/03/18 13:52:03;;;;;;;53.78;37.63;;;;;;;24.96;40.64;100572.13;5033830;28;20049;-50
2023/03/18 13:54:35;;;;;;;54.30;36.03;;;;;;;24.96;40.56;100571.25;5035402;28;20095;-47
2023/03/18 13:57:33;;;;;;;52.72;37.88;;;;;;;24.95;40.80;100572.09;5035711;28;20022;-47
2023/03/18 14:00:26;;;;;;;47.45;37.55;;;;;;;24.93;40.92;100577.38;5031327;28;20033;-47
2023/03/18 14:03:16;;;;;;;57.70;42.70;;;;;;;24.92;41.11;100574.72;5029648;28;20451;-45
2023/03/18 14:05:45;;;;;;;59.20;42.45;;;;;;;24.88;40.89;100579.97;5035303;28;20364;-47
2023/03/18 14:08:34;;;;;;;52.78;39.38;;;;;;;24.81;41.13;100580.81;5033994;28;20037;-47
2023/03/18 14:11:22;;;;;;;54.95;39.33;;;;;;;24.85;41.07;100589.56;5032073;28;20033;-47
2023/03/18 14:13:54;;;;;;;62.08;45.10;;;;;;;24.82;40.97;100587.81;5031034;28;20450;-45
2023/03/18 14:16:25;;;;;;;56.03;42.25;;;;;;;24.84;41.10;100586.09;5035298;28;20057;-45
2023/03/18 14:19:21;;;;;;;62.38;42.35;;;;;;;24.91;40.73;100584.34;5035156;28;20064;-46
2023/03/18 14:21:54;;;;;;;61.40;44.28;;;;;;;24.88;41.12;100586.97;5034482;28;20068;-47
2023/03/18 14:24:25;;;;;;;59.42;44.17;;;;;;;24.91;41.14;100586.09;5035287;28;20037;-45
2023/03/18 14:27:03;;;;;;;60.05;43.45;;;;;;;24.90;40.90;100594.84;5034713;28;20430;-45
2023/03/18 14:29:42;;;;;;;68.45;46.13;;;;;;;24.88;41.01;100590.47;5033586;28;20446;-46
2023/03/18 14:32:30;;;;;;;70.18;50.17;;;;;;;24.91;41.09;100589.59;5034767;28;20030;-45
2023/03/18 14:35:26;;;;;;;59.83;45.15;;;;;;;24.84;40.95;100591.34;5032027;28;20045;-45
2023/03/18 14:38:12;;;;;;;;;;;;;;;24.95;40.71;100594.00;5035282;28;20029;-46
2023/03/18 14:40:44;;;;;;;68.13;49.40;;;;;;;24.92;40.78;100585.22;5033211;28;19913;-47
2023/03/18 14:43:32;;;;;;;67.00;46.95;;;;;;;24.88;40.96;100581.72;5033267;28;20140;-46
2023/03/18 14:46:03;;;;;;;62.75;44.95;;;;;;;24.86;40.88;100589.59;5033006;28;20033;-45
2023/03/18 14:48:33;;;;;;;66.78;48.63;;;;;;;24.89;40.68;100599.22;5034494;28;20420;-46
2023/03/18 14:51:15;;;;;;;67.82;49.97;;;;;;;24.92;40.82;100601.84;5034111;28;20083;-45
2023/03/18 14:53:49;;;;;;;59.05;46.83;;;;;;;24.93;40.70;100595.72;5033274;28;20076;-45
2023/03/18 14:56:19;;;;;;;66.82;47.20;;;;;;;24.95;40.87;100604.50;5034539;28;20467;-47
2023/03/18 14:58:52;;;;;;;63.42;45.33;;;;;;;24.89;40.82;100609.69;5034233;28;20033;-46
2023/03/18 15:01:25;;;;;;;63.88;46.17;;;;;;;24.91;40.92;100607.97;5034405;28;20029;-45
2023/03/18 15:03:54;;;;;;;62.50;43.45;;;;;;;24.96;40.54;100614.13;5034034;28;20037;-47
2023/03/18 15:06:25;;;;;;;59.53;44.45;;;;;;;24.91;40.94;100625.44;5034218;28;20032;-46
2023/03/18 15:09:00;;;;;;;65.88;50.05;;;;;;;24.80;40.87;100618.41;5032571;28;20030;-46
2023/03/18 15:11:29;;;;;;;;;;;;;;;24.93;40.93;100624.59;5033169;28;20030;-47
2023/03/18 15:13:57;;;;;;;73.05;53.78;;;;;;;24.86;41.00;100622.81;5033918;28;20382;-46
2023/03/18 15:16:26;;;;;;;74.78;50.97;;;;;;;24.86;40.92;100622.81;5033881;28;20029;-47
2023/03/18 15:18:56;;;;;;;67.97;50.40;;;;;;;24.86;40.78;100621.06;5033687;28;20037;-49
2023/03/18 15:21:31;;;;;;;78.85;55.15;;;;;;;24.75;40.93;100620.13;5033924;28;20072;-47
2023/03/18 15:24:03;;;;;;;;;;;;;;;24.83;41.17;100617.53;5032814;28;20053;-48
2023/03/18 15:29:28;;;;;;;71.05;53.45;;;;;;;24.74;40.91;100621.00;4983216;28;20125;-48
2023/03/18 15:35:25;;;;;;;78.38;55.80;;;;;;;24.77;41.05;100628.03;5009776;28;20048;-51
2023/03/18 15:38:15;;;;;;;73.32;52.03;;;;;;;24.84;40.84;100633.31;5011530;28;20435;-49
2023/03/18 15:40:55;;;;;;;84.10;60.42;;;;;;;24.82;40.96;100626.31;5007184;28;20113;-47
2023/03/18 15:43:39;;;;;;;79.72;59.05;;;;;;;24.82;41.14;100636.81;4979209;28;20049;-50
2023/03/18 15:46:29;;;;;;;84.38;61.72;;;;;;;24.81;40.71;100624.56;5011668;28;20396;-47
2023/03/18 15:49:00;;;;;;;79.55;57.85;;;;;;;24.83;40.87;100639.41;4995357;28;20134;-50
2023/03/18 15:51:33;;;;;;;77.82;57.38;;;;;;;24.85;40.69;100649.91;5011520;28;20033;-46
2023/03/18 15:54:27;;;;;;;77.90;56.65;;;;;;;24.85;40.78;100645.56;5011209;28;20034;-51
2023/03/18 15:56:57;;;;;;;80.75;59.17;;;;;;;24.78;40.99;100651.63;5011425;28;20395;-47
2023/03/18 15:59:28;;;;;;;76.32;57.70;;;;;;;24.86;40.80;100657.81;5013472;28;20048;-51
2023/03/18 16:01:58;;;;;;;81.15;58.65;;;;;;;24.92;40.47;100658.69;5032198;28;20424;-49
2023/03/18 16:04:31;;;;;;;77.25;57.85;;;;;;;24.86;40.95;100664.78;5033201;28;20037;-46
2023/03/18 16:07:00;;;;;;;81.60;57.72;;;;;;;24.83;40.76;100672.63;5031923;28;20029;-51
2023/03/18 16:09:29;;;;;;;79.35;58.72;;;;;;;24.77;40.78;100665.63;5033178;28;20033;-46
2023/03/18 16:12:03;;;;;;;82.10;59.67;;;;;;;24.78;40.73;100679.63;5032740;28;20391;-50
2023/03/18 16:14:35;;;;;;;;;;;;;;;24.77;40.79;100683.97;5033583;28;20100;-51
2023/03/18 16:17:04;;;;;;;87.80;63.45;;;;;;;24.75;41.13;100692.72;5031812;28;19913;-50
2023/03/18 16:19:33;;;;;;;84.90;63.70;;;;;;;24.74;40.89;100691.81;5032674;28;20029;-45
2023/03/18 16:22:01;;;;;;;83.57;62.47;;;;;;;24.82;40.67;100686.66;5032580;28;20372;-47
2023/03/18 16:24:30;;;;;;;85.68;62.58;;;;;;;24.83;41.02;100694.50;5032804;28;20048;-49
2023/03/18 16:26:58;;;;;;;84.30;59.08;;;;;;;24.88;40.52;100707.66;5015420;28;20063;-46
2023/03/18 16:29:31;;;;;;;85.55;62.60;;;;;;;24.78;40.81;100703.25;5032805;28;20029;-50
2023/03/18 16:32:00;;;;;;;80.35;58.65;;;;;;;24.83;40.56;100714.59;5031663;28;20439;-46
2023/03/18 16:34:29;;;;;;;84.10;62.38;;;;;;;24.89;40.41;100717.28;5031759;28;20025;-51
2023/03/18 16:36:57;;;;;;;88.90;67.40;;;;;;;24.86;40.58;100719.88;5032436;28;20026;-47
2023/03/18 16:39:32;;;;;;;85.95;64.85;;;;;;;24.81;40.55;100719.88;5032643;28;20049;-51
2023/03/18 16:42:03;;;;;;;94.57;68.82;;;;;;;24.80;40.62;100725.13;5032802;28;20021;-49
2023/03/18 16:44:32;;;;;;;95.53;68.18;;;;;;;24.83;40.49;100731.25;5034325;28;20057;-46
2023/03/18 16:47:01;;;;;;;98.65;69.60;;;;;;;24.79;40.63;100721.59;5035070;28;20078;-46
2023/03/18 16:49:36;;;;;;;93.70;69.47;;;;;;;24.76;40.59;100725.97;5035310;28;20034;-47
2023/03/18 16:52:04;;;;;;;93.90;68.95;;;;;;;24.77;40.67;100718.09;5036506;28;20033;-49
2023/03/18 16:54:34;;;;;;;96.45;71.93;;;;;;;24.70;40.70;100719.78;5036556;28;20494;-46
2023/03/18 16:57:04;;;;;;;95.88;71.72;;;;;;;24.71;40.84;100718.94;5036320;28;20033;-46
2023/03/18 16:59:34;;;;;;;97.63;69.93;;;;;;;24.78;40.53;100718.97;5036818;28;20376;-46
2023/03/18 17:02:03;;;;;;;100.43;73.03;;;;;;;24.77;40.95;100718.09;5035896;28;20021;-46
2023/03/18 17:04:33;;;;;;;97.35;72.90;;;;;;;24.73;41.02;100727.69;5036162;28;20032;-48
2023/03/18 17:07:04;;;;;;;96.20;70.63;;;;;;;24.79;40.82;100731.22;5036490;28;20386;-45
2023/03/18 17:09:32;;;;;;;107.50;76.05;;;;;;;24.71;41.06;100733.81;5035149;28;20039;-50
2023/03/18 17:12:05;;;;;;;97.80;70.43;;;;;;;24.71;40.85;100739.91;5036156;28;20403;-47
2023/03/18 17:14:36;;;;;;;100.53;72.82;;;;;;;24.79;40.61;100742.59;5018427;28;20025;-47
2023/03/18 17:17:26;;;;;;;102.82;73.22;;;;;;;24.75;40.75;100740.81;5036188;28;20033;-47
2023/03/18 17:19:55;;;;;;;99.93;71.88;;;;;;;24.78;40.42;100755.69;5033094;28;20045;-46
2023/03/18 17:22:27;;;;;;;102.65;72.05;;;;;;;24.72;40.83;100762.66;5034823;28;20132;-47
2023/03/18 17:24:54;;;;;;;103.55;75.50;;;;;;;24.70;41.04;100758.28;5028295;28;20038;-48
2023/03/18 17:27:24;;;;;;;101.35;73.05;;;;;;;24.68;40.85;100770.47;5020048;28;20018;-48
2023/03/18 17:29:52;;;;;;;102.43;75.43;;;;;;;24.69;40.91;100769.59;5032970;28;20022;-47
2023/03/18 17:32:21;;;;;;;102.88;73.18;;;;;;;24.76;40.72;100778.44;5032828;28;20030;-50
2023/03/18 17:34:50;;;;;;;106.15;74.60;;;;;;;24.85;40.43;100775.84;5030449;28;20429;-48
2023/03/18 17:37:18;;;;;;;109.57;74.82;;;;;;;24.83;40.54;100783.72;5032286;28;20018;-49
2023/03/18 17:39:46;;;;;;;110.22;79.13;;;;;;;24.84;40.37;100790.72;5032406;28;20120;-48
2023/03/18 17:42:32;;;;;;;114.88;80.63;;;;;;;24.82;40.63;100789.84;5033777;28;20109;-48
2023/03/18 17:45:05;;;;;;;108.90;79.45;;;;;;;24.81;40.56;100795.09;5033431;28;20060;-48
2023/03/18 17:47:33;;;;;;;117.93;81.18;;;;;;;24.79;40.47;100795.06;5022203;28;20033;-47
2023/03/18 17:50:02;;;;;;;115.57;81.53;;;;;;;24.76;40.67;100802.91;5033327;28;20028;-48
2023/03/18 17:52:30;;;;;;;112.38;80.13;;;;;;;24.75;40.93;100801.13;5033805;28;20087;-48
2023/03/18 17:54:58;;;;;;;113.82;78.20;;;;;;;24.69;40.77;100798.47;5029317;28;20044;-48
2023/03/18 17:57:26;;;;;;;108.25;77.20;;;;;;;24.65;40.95;100810.69;5034532;28;20036;-49
2023/03/18 17:59:54;;;;;;;103.65;73.32;;;;;;;24.66;40.83;100815.03;5032732;28;20041;-49
2023/03/18 18:02:21;;;;;;;109.18;74.28;;;;;;;24.59;41.07;100823.72;5030042;28;20028;-48
2023/03/18 18:04:48;;;;;;;98.63;70.88;;;;;;;24.58;40.76;100827.22;5029305;28;20030;-47
2023/03/18 18:07:18;;;;;;;96.10;67.10;;;;;;;24.55;40.87;100827.19;5030735;28;20483;-47
2023/03/18 18:09:45;;;;;;;93.78;63.67;;;;;;;24.65;40.78;100836.00;5033045;28;20029;-48
2023/03/18 18:12:21;;;;;;;85.15;59.28;;;;;;;24.61;40.86;100837.75;5033343;28;20104;-47
2023/03/18 18:14:49;;;;;;;83.55;56.80;;;;;;;24.59;40.69;100836.84;5026980;28;20023;-47
2023/03/18 18:17:18;;;;;;;82.40;55.47;;;;;;;24.63;40.74;100843.00;5030449;28;20033;-47
2023/03/18 18:19:45;;;;;;;73.80;52.20;;;;;;;24.68;40.35;100843.91;5032738;28;20079;-47
2023/03/18 18:22:19;;;;;;;70.45;49.50;;;;;;;24.67;40.48;100852.66;5032951;28;20049;-46
2023/03/18 18:24:47;;;;;;;72.97;51.00;;;;;;;24.67;40.54;100853.50;5027260;28;20030;-47
2023/03/18 18:27:15;;;;;;;73.75;49.92;;;;;;;24.62;40.50;100857.88;5032301;28;20025;-48
2023/03/18 18:29:44;;;;;;;64.43;44.47;;;;;;;24.72;40.16;100878.09;5033006;28;20468;-48
2023/03/18 18:32:14;;;;;;;63.50;44.67;;;;;;;24.77;40.35;100887.75;5032270;28;20502;-46
2023/03/18 18:34:41;;;;;;;57.15;40.85;;;;;;;24.71;40.11;100886.81;5021762;28;20064;-47
2023/03/18 18:37:09;;;;;;;58.30;40.30;;;;;;;24.71;40.25;100892.06;5030007;28;20139;-46
2023/03/18 18:39:36;;;;;;;59.97;38.95;;;;;;;24.70;40.16;100898.16;5031856;28;20045;-48
2023/03/18 18:42:04;;;;;;;52.67;36.78;;;;;;;24.73;40.27;100895.56;5029387;28;20034;-47
2023/03/18 18:44:31;;;;;;;54.13;37.17;;;;;;;24.76;39.99;100906.97;5025455;28;20642;-47
2023/03/18 18:46:59;;;;;;;51.38;35.05;;;;;;;24.71;40.22;100901.69;5025882;28;20056;-46
2023/03/18 18:49:27;;;;;;;48.88;32.67;;;;;;;24.74;40.22;100906.94;5028993;28;20038;-47
2023/03/18 18:51:55;;;;;;;47.35;32.80;;;;;;;24.73;40.56;100913.94;5029352;28;20114;-48
2023/03/18 18:54:24;;;;;;;47.97;33.40;;;;;;;24.69;40.40;100919.97;5032609;28;20021;-46
2023/03/18 18:56:52;;;;;;;46.35;32.08;;;;;;;24.73;40.15;100919.19;5026738;28;20041;-46
2023/03/18 18:59:25;;;;;;;49.03;32.92;;;;;;;24.81;40.15;100923.63;5030964;28;20025;-48
2023/03/18 19:01:54;;;;;;;57.13;32.33;;;;;;;24.86;40.41;100929.78;5030957;28;20033;-46
2023/03/18 19:04:21;;;;;;;52.10;33.33;;;;;;;24.81;40.30;100934.13;5032333;28;20390;-47
2023/03/18 19:06:51;;;;;;;50.33;32.95;;;;;;;24.75;40.61;100945.41;5022540;28;20065;-47
2023/03/18 19:09:20;;;;;;;62.72;34.63;;;;;;;24.82;40.42;100952.50;5027449;28;20026;-47
2023/03/18 19:11:49;;;;;;;59.35;34.42;;;;;;;24.76;40.57;100954.19;5026520;28;20031;-47
2023/03/18 19:14:27;;;;;;;55.95;34.80;;;;;;;24.73;40.96;100962.91;5028180;28;20068;-47
2023/03/18 19:16:57;;;;;;;49.42;31.02;;;;;;;24.67;40.86;100963.69;5022314;28;20106;-48
2023/03/18 19:19:27;;;;;;;51.80;29.55;;;;;;;24.77;40.62;100976.94;5031100;28;20021;-48
2023/03/18 19:21:56;;;;;;;47.47;28.73;;;;;;;24.73;40.89;100974.28;5026773;28;20072;-47
2023/03/18 19:24:25;;;;;;;57.97;31.65;;;;;;;24.77;41.13;100980.44;5029909;28;20038;-48
2023/03/18 19:27:05;;;;;;;63.80;32.88;;;;;;;24.86;40.75;100974.38;5024924;28;20068;-48
2023/03/18 19:29:33;;;;;;;94.30;41.13;;;;;;;24.93;40.65;100991.97;5027454;28;20060;-47
2023/03/18 19:32:00;;;;;;;92.72;41.50;;;;;;;24.96;40.64;100998.97;5031546;28;20483;-48
2023/03/18 19:34:30;;;;;;;111.70;43.45;;;;;;;25.01;40.83;101003.41;5028836;28;20116;-47
2023/03/18 19:36:58;;;;;;;113.28;44.45;;;;;;;25.10;40.86;101013.09;5031132;28;20036;-48
2023/03/18 19:39:26;;;;;;;107.70;42.95;;;;;;;25.06;40.91;101015.69;5031975;28;20034;-49
2023/03/18 19:41:54;;;;;;;108.40;43.25;;;;;;;25.02;41.07;101026.16;5025877;28;20027;-48
2023/03/18 19:44:24;;;;;;;114.15;43.88;;;;;;;24.97;41.01;101021.72;5026636;28;20041;-47
2023/03/18 19:46:53;;;;;;;104.05;40.55;;;;;;;25.01;41.04;101015.66;5026645;28;21523;-48
2023/03/18 19:49:25;;;;;;;94.10;38.80;;;;;;;24.90;41.09;101028.66;5030437;28;20143;-47
2023/03/18 19:51:53;;;;;;;92.53;38.08;;;;;;;24.90;41.22;101033.06;5031053;28;20117;-49
2023/03/18 19:54:23;;;;;;;91.20;38.28;;;;;;;24.85;41.15;101040.84;5013872;28;20061;-48
2023/03/18 19:56:52;;;;;;;84.68;35.53;;;;;;;24.89;41.37;101045.28;5028664;28;20104;-48
2023/03/18 19:59:21;;;;;;;82.78;35.70;;;;;;;24.83;41.37;101047.81;5008133;28;20059;-51
2023/03/18 20:01:50;;;;;;;78.50;33.67;;;;;;;24.81;41.39;101055.69;5030139;28;20068;-48
2023/03/18 20:04:27;;;;;;;74.07;32.80;;;;;;;24.85;40.90;101059.22;5029833;28;20057;-48
2023/03/18 20:06:56;;;;;;;70.22;32.20;;;;;;;24.84;41.19;101066.22;5030024;28;20045;-47
2023/03/18 20:09:24;;;;;;;74.32;31.35;;;;;;;24.76;41.31;101059.13;5031208;28;20051;-50
2023/03/18 20:11:55;;;;;;;68.78;31.08;;;;;;;24.80;40.83;101059.16;5031113;28;20034;-48